Time;durP1;ratioP1;P1;durP2;ratioP2;P2;SDS_P1;SDS_P2;PMS_P1;PMS_P2;Temp;Humidity;BMP_temperature;BMP_pressure;BME280_temperature;BME280_humidity;BME280_pressure;Samples;Min_cycle;Max_cycle;Signal;HPM_P1;HPM_P2
2022/11/13 00:01:16;;;;;;;34.93;21.67;;;6.80;99.90;;;;;;5076804;22;20238;-48
2022/11/13 00:03:44;;;;;;;34.57;19.83;;;6.70;99.90;;;;;;5067474;28;20219;-49
2022/11/13 00:06:13;;;;;;;32.00;19.03;;;6.70;99.90;;;;;;5071390;28;20198;-48
2022/11/13 00:08:40;;;;;;;31.67;19.97;;;6.70;99.90;;;;;;5069829;28;20680;-48
2022/11/13 00:11:10;;;;;;;32.70;18.87;;;6.80;99.90;;;;;;5070381;28;20604;-47
2022/11/13 00:13:38;;;;;;;26.90;17.57;;;6.80;99.90;;;;;;5049519;28;20203;-49
2022/11/13 00:16:07;;;;;;;30.60;18.63;;;6.80;99.90;;;;;;5050290;28;20205;-48
2022/11/13 00:18:35;;;;;;;29.30;18.97;;;6.80;99.90;;;;;;5051187;28;20203;-48
2022/11/13 00:21:08;;;;;;;30.67;17.33;;;6.90;99.90;;;;;;5051094;28;20212;-49
2022/11/13 00:23:36;;;;;;;31.43;19.13;;;6.90;99.90;;;;;;5049047;28;20215;-48
2022/11/13 00:26:07;;;;;;;30.37;17.47;;;6.80;99.90;;;;;;5042862;28;20191;-48
2022/11/13 00:28:35;;;;;;;23.53;16.20;;;6.80;99.90;;;;;;5050974;28;20210;-49
2022/11/13 00:31:02;;;;;;;26.80;17.97;;;6.80;99.90;;;;;;5051212;28;20235;-50
2022/11/13 00:33:30;;;;;;;21.90;15.40;;;6.80;99.90;;;;;;5049870;28;20225;-48
2022/11/13 00:36:02;;;;;;;27.37;16.80;;;6.80;99.90;;;;;;5049144;28;20199;-49
2022/11/13 00:38:31;;;;;;;29.53;18.13;;;6.80;99.90;;;;;;5050768;28;20215;-48
2022/11/13 00:40:59;;;;;;;29.20;17.13;;;6.80;99.90;;;;;;5050739;28;20196;-50
2022/11/13 00:43:27;;;;;;;26.70;16.67;;;6.70;99.90;;;;;;5049755;28;20227;-49
2022/11/13 00:45:54;;;;;;;27.83;16.17;;;6.70;99.90;;;;;;5050912;28;20194;-50
2022/11/13 00:48:21;;;;;;;28.10;17.17;;;6.70;99.90;;;;;;5050841;28;20210;-50
2022/11/13 00:50:48;;;;;;;29.33;17.53;;;6.70;99.90;;;;;;5043054;28;20219;-49
2022/11/13 00:53:16;;;;;;;30.50;17.30;;;6.60;99.90;;;;;;5053382;28;20321;-49
2022/11/13 00:55:45;;;;;;;27.60;17.70;;;6.60;99.90;;;;;;5054636;28;20211;-51
2022/11/13 00:58:13;;;;;;;27.97;15.87;;;6.60;99.90;;;;;;5054553;28;20206;-49
2022/11/13 01:00:41;;;;;;;29.87;17.73;;;6.60;99.90;;;;;;5054523;28;20206;-49
2022/11/13 01:03:08;;;;;;;28.80;16.80;;;6.60;99.90;;;;;;5052768;28;20228;-50
2022/11/13 01:05:36;;;;;;;33.73;19.83;;;6.60;99.90;;;;;;5054208;28;20200;-50
2022/11/13 01:08:03;;;;;;;27.00;17.47;;;6.60;99.90;;;;;;5054307;28;20208;-50
2022/11/13 01:10:31;;;;;;;27.80;17.23;;;6.60;99.90;;;;;;5054258;28;20230;-49
2022/11/13 01:12:59;;;;;;;26.00;17.27;;;6.60;99.90;;;;;;5051583;28;20229;-49
2022/11/13 01:15:27;;;;;;;27.43;17.70;;;6.70;99.90;;;;;;5052870;28;20201;-49
2022/11/13 01:17:54;;;;;;;27.20;16.37;;;6.70;99.90;;;;;;5054131;28;20200;-50
2022/11/13 01:20:22;;;;;;;26.93;16.13;;;6.80;99.90;;;;;;5054047;28;20265;-49
2022/11/13 01:22:49;;;;;;;31.23;16.80;;;6.80;99.90;;;;;;5053013;28;20230;-48
2022/11/13 01:25:17;;;;;;;26.40;16.77;;;6.80;99.90;;;;;;5052845;28;20195;-49
2022/11/13 01:27:44;;;;;;;24.10;15.57;;;6.70;99.90;;;;;;5045568;28;20199;-50
2022/11/13 01:30:13;;;;;;;25.13;17.30;;;6.60;99.90;;;;;;5053849;28;20217;-50
2022/11/13 01:32:40;;;;;;;26.07;15.47;;;6.60;99.90;;;;;;5052957;28;20731;-49
2022/11/13 01:35:07;;;;;;;25.10;16.10;;;6.60;99.90;;;;;;5053392;28;20300;-49
2022/11/13 01:37:34;;;;;;;30.53;17.57;;;6.50;99.90;;;;;;5052650;28;20205;-49
2022/11/13 01:40:01;;;;;;;25.50;15.83;;;6.50;99.90;;;;;;5053819;28;20204;-50
2022/11/13 01:42:29;;;;;;;30.43;17.63;;;6.50;99.90;;;;;;5053593;28;20720;-49
2022/11/13 01:44:58;;;;;;;28.50;16.63;;;6.50;99.90;;;;;;5052376;28;20206;-50
2022/11/13 01:47:27;;;;;;;27.87;16.80;;;6.60;99.90;;;;;;5053531;28;20305;-49
2022/11/13 01:49:57;;;;;;;24.27;15.07;;;6.60;99.90;;;;;;5052510;28;20211;-49
2022/11/13 01:52:27;;;;;;;22.50;15.77;;;6.60;99.90;;;;;;5052295;28;20235;-50
2022/11/13 01:54:56;;;;;;;28.13;16.43;;;6.50;99.90;;;;;;5052387;28;20201;-49
2022/11/13 01:57:24;;;;;;;21.90;15.23;;;6.50;99.90;;;;;;5053482;28;20203;-49
2022/11/13 01:59:57;;;;;;;25.23;16.90;;;6.50;99.90;;;;;;5052398;28;20199;-50
2022/11/13 02:02:24;;;;;;;26.53;17.17;;;6.70;99.90;;;;;;5051437;28;20243;-50
2022/11/13 02:04:52;;;;;;;27.93;16.67;;;6.70;99.90;;;;;;5044036;28;20214;-48
2022/11/13 02:07:21;;;;;;;25.90;16.37;;;6.60;99.90;;;;;;5046144;28;20208;-49
2022/11/13 02:09:49;;;;;;;25.60;15.60;;;6.60;99.90;;;;;;5050552;28;20200;-49
2022/11/13 02:12:21;;;;;;;22.77;15.33;;;6.60;99.90;;;;;;5052869;28;20220;-49
2022/11/13 02:14:51;;;;;;;22.00;14.80;;;6.70;99.90;;;;;;5052037;28;20622;-49
2022/11/13 02:17:23;;;;;;;23.83;14.87;;;6.60;99.90;;;;;;5047104;28;20563;-49
2022/11/13 02:19:55;;;;;;;26.77;15.07;;;6.60;99.90;;;;;;5052209;28;20557;-49
2022/11/13 02:22:28;;;;;;;24.07;14.53;;;6.60;99.90;;;;;;5052898;28;20223;-49
2022/11/13 02:25:00;;;;;;;24.80;14.70;;;6.60;99.90;;;;;;5052568;28;20203;-49
2022/11/13 02:27:31;;;;;;;26.07;14.87;;;6.60;99.90;;;;;;5051980;28;20204;-51
2022/11/13 02:29:58;;;;;;;21.17;13.50;;;6.60;99.90;;;;;;5043794;28;20209;-49
2022/11/13 02:32:25;;;;;;;22.70;14.70;;;6.60;99.90;;;;;;5052699;28;20643;-50
2022/11/13 02:34:52;;;;;;;20.57;12.73;;;6.50;99.90;;;;;;5052344;28;20208;-49
2022/11/13 02:37:19;;;;;;;21.90;13.27;;;6.50;99.90;;;;;;5052765;28;20208;-49
2022/11/13 02:39:47;;;;;;;22.73;13.50;;;6.50;99.90;;;;;;5051649;28;20210;-50
2022/11/13 02:42:15;;;;;;;20.37;13.07;;;6.50;99.90;;;;;;5051706;28;20234;-50
2022/11/13 02:44:42;;;;;;;22.33;13.87;;;6.50;99.90;;;;;;5052401;28;20209;-49
2022/11/13 02:47:09;;;;;;;20.77;12.63;;;6.40;99.90;;;;;;5052568;28;20615;-49
2022/11/13 02:49:36;;;;;;;23.03;14.03;;;6.40;99.90;;;;;;5050863;28;20202;-48
2022/11/13 02:52:04;;;;;;;18.47;12.97;;;6.50;99.90;;;;;;5051854;28;20224;-49
2022/11/13 02:54:31;;;;;;;20.17;13.83;;;6.50;99.90;;;;;;5043034;28;20690;-50
2022/11/13 02:56:58;;;;;;;20.03;13.13;;;6.50;99.90;;;;;;5049805;28;20207;-49
2022/11/13 02:59:26;;;;;;;18.17;13.63;;;6.50;99.90;;;;;;5052205;28;20206;-50
2022/11/13 03:01:53;;;;;;;20.30;12.50;;;6.60;99.90;;;;;;5052026;28;20234;-50
2022/11/13 03:04:20;;;;;;;20.03;13.10;;;6.50;99.90;;;;;;5044818;28;20209;-49
2022/11/13 03:06:47;;;;;;;17.30;12.10;;;6.50;99.90;;;;;;5049195;28;20203;-49
2022/11/13 03:09:14;;;;;;;17.53;11.63;;;6.50;99.90;;;;;;5052192;28;20596;-50
2022/11/13 03:11:43;;;;;;;20.67;11.83;;;6.40;99.90;;;;;;5051975;28;20231;-49
2022/11/13 03:14:10;;;;;;;15.67;10.90;;;6.40;99.90;;;;;;5042962;28;20207;-49
2022/11/13 03:16:38;;;;;;;19.70;12.73;;;6.40;99.90;;;;;;5047770;28;20201;-49
2022/11/13 03:19:06;;;;;;;18.80;11.27;;;6.40;99.90;;;;;;5051679;28;20582;-49
2022/11/13 03:21:33;;;;;;;19.60;11.33;;;6.50;99.90;;;;;;5052031;28;20231;-49
2022/11/13 03:24:00;;;;;;;19.33;12.23;;;6.40;99.90;;;;;;5050384;28;20552;-51
2022/11/13 03:26:27;;;;;;;17.47;10.90;;;6.40;99.90;;;;;;5050870;28;20203;-49
2022/11/13 03:28:54;;;;;;;19.03;12.10;;;6.40;99.90;;;;;;5051542;28;20329;-49
2022/11/13 03:31:22;;;;;;;18.30;11.37;;;6.40;99.90;;;;;;5051608;28;20223;-49
2022/11/13 03:33:52;;;;;;;16.43;10.50;;;6.30;99.90;;;;;;5048486;28;20205;-50
2022/11/13 03:36:19;;;;;;;20.53;12.47;;;6.30;99.90;;;;;;5044960;28;20212;-49
2022/11/13 03:38:46;;;;;;;16.53;11.07;;;6.30;99.90;;;;;;5049408;28;20207;-49
2022/11/13 03:41:14;;;;;;;15.40;10.60;;;6.30;99.90;;;;;;5051349;28;20195;-49
2022/11/13 03:43:41;;;;;;;17.53;10.77;;;6.30;99.90;;;;;;5049435;28;20252;-49
2022/11/13 03:46:08;;;;;;;13.37;10.00;;;6.40;99.90;;;;;;5043180;28;20567;-49
2022/11/13 03:48:36;;;;;;;14.67;10.33;;;6.40;99.90;;;;;;5047657;28;20207;-49
2022/11/13 03:51:04;;;;;;;14.20;9.57;;;6.50;99.90;;;;;;5031309;28;20231;-50
2022/11/13 03:53:31;;;;;;;15.37;10.67;;;6.40;99.90;;;;;;5035350;28;20226;-49
2022/11/13 03:55:58;;;;;;;16.23;10.63;;;6.30;99.90;;;;;;5049735;28;20204;-49
2022/11/13 03:58:25;;;;;;;13.97;10.43;;;6.30;99.90;;;;;;5050410;28;20632;-50
2022/11/13 04:00:54;;;;;;;14.87;10.13;;;6.30;99.90;;;;;;5050983;28;20695;-49
2022/11/13 04:03:22;;;;;;;13.70;9.47;;;6.30;99.90;;;;;;5049704;28;20308;-49
2022/11/13 04:05:50;;;;;;;15.17;9.90;;;6.20;99.90;;;;;;5042868;28;20203;-49
2022/11/13 04:08:19;;;;;;;15.43;10.17;;;6.20;99.90;;;;;;5050541;28;20609;-50
2022/11/13 04:10:46;;;;;;;16.23;10.20;;;6.10;99.90;;;;;;5051032;28;20201;-50
2022/11/13 04:13:13;;;;;;;18.27;10.83;;;6.10;99.90;;;;;;5048830;28;20229;-49
2022/11/13 04:15:40;;;;;;;16.20;10.13;;;6.20;99.90;;;;;;5048031;28;20669;-50
2022/11/13 04:18:07;;;;;;;15.30;10.97;;;6.20;99.90;;;;;;5051039;28;20207;-49
2022/11/13 04:20:34;;;;;;;14.73;10.73;;;6.20;99.90;;;;;;5050988;28;20727;-49
2022/11/13 04:23:06;;;;;;;16.27;10.07;;;6.20;99.90;;;;;;5049654;28;20709;-49
2022/11/13 04:25:35;;;;;;;19.23;11.43;;;6.30;99.90;;;;;;5050460;28;20222;-49
2022/11/13 04:28:02;;;;;;;16.10;10.53;;;6.30;99.90;;;;;;5054836;28;20204;-50
2022/11/13 04:30:29;;;;;;;14.57;11.33;;;6.30;99.90;;;;;;5053778;28;20294;-49
2022/11/13 04:32:56;;;;;;;12.70;10.03;;;6.40;99.90;;;;;;5034860;28;20228;-49
2022/11/13 04:35:23;;;;;;;11.13;8.93;;;6.40;99.90;;;;;;5050687;28;20211;-49
2022/11/13 04:37:50;;;;;;;16.63;9.13;;;6.40;99.90;;;;;;5054108;28;20210;-50
2022/11/13 04:40:18;;;;;;;14.17;9.43;;;6.30;99.90;;;;;;5054470;28;20230;-50
2022/11/13 04:42:48;;;;;;;13.40;9.20;;;6.30;99.90;;;;;;5054540;28;20659;-49
2022/11/13 04:45:15;;;;;;;10.17;8.50;;;6.30;99.90;;;;;;5053547;28;20201;-50
2022/11/13 04:47:42;;;;;;;9.87;8.03;;;6.20;99.90;;;;;;5052696;28;20211;-50
2022/11/13 04:50:11;;;;;;;11.97;7.83;;;6.20;99.90;;;;;;5051527;28;20226;-50
2022/11/13 04:52:38;;;;;;;9.90;7.77;;;6.20;99.90;;;;;;5053541;28;20233;-49
2022/11/13 04:55:07;;;;;;;10.63;7.57;;;6.20;99.90;;;;;;5052840;28;20207;-49
2022/11/13 04:57:34;;;;;;;8.70;7.80;;;6.20;99.90;;;;;;5052968;28;20216;-50
2022/11/13 05:00:03;;;;;;;11.23;7.97;;;6.20;99.90;;;;;;5054518;28;20208;-50
2022/11/13 05:02:30;;;;;;;11.77;7.63;;;6.10;99.90;;;;;;5054342;28;20231;-49
2022/11/13 05:04:57;;;;;;;8.40;6.47;;;6.10;99.90;;;;;;5050972;28;20214;-49
2022/11/13 05:07:25;;;;;;;10.33;8.33;;;6.20;99.90;;;;;;5053567;28;20199;-48
2022/11/13 05:09:52;;;;;;;11.23;7.20;;;6.10;99.90;;;;;;5054127;28;20268;-49
2022/11/13 05:12:20;;;;;;;10.37;8.13;;;6.10;99.90;;;;;;5054093;28;20231;-49
2022/11/13 05:14:47;;;;;;;11.20;7.57;;;6.10;99.90;;;;;;5053342;28;20216;-49
2022/11/13 05:17:15;;;;;;;8.90;6.53;;;6.20;99.90;;;;;;5052713;28;20207;-49
2022/11/13 05:19:42;;;;;;;12.70;8.03;;;6.20;99.90;;;;;;5042768;28;20202;-49
2022/11/13 05:22:09;;;;;;;9.33;7.23;;;6.20;99.90;;;;;;5050269;28;20215;-49
2022/11/13 05:24:37;;;;;;;11.93;8.40;;;6.20;99.90;;;;;;5052829;28;20208;-50
2022/11/13 05:27:04;;;;;;;10.83;8.47;;;6.20;99.90;;;;;;5053515;28;20807;-49
2022/11/13 05:29:31;;;;;;;10.50;7.70;;;6.20;99.90;;;;;;5051755;28;20207;-49
2022/11/13 05:31:58;;;;;;;8.23;6.33;;;6.20;99.90;;;;;;5053705;28;20230;-49
2022/11/13 05:34:26;;;;;;;9.30;7.20;;;6.10;99.90;;;;;;5053942;28;20195;-49
2022/11/13 05:36:53;;;;;;;9.03;6.97;;;6.20;99.90;;;;;;5052727;28;20213;-49
2022/11/13 05:39:24;;;;;;;11.00;7.80;;;6.10;99.90;;;;;;5053757;28;20215;-49
2022/11/13 05:41:51;;;;;;;9.87;6.77;;;6.10;99.90;;;;;;5055005;28;20223;-50
2022/11/13 05:44:18;;;;;;;8.97;7.27;;;6.20;99.90;;;;;;5054719;28;20207;-49
2022/11/13 05:46:45;;;;;;;9.70;6.80;;;6.20;99.90;;;;;;5054310;28;20200;-49
2022/11/13 05:49:12;;;;;;;7.37;6.20;;;6.20;99.90;;;;;;5060193;28;20207;-48
2022/11/13 05:51:40;;;;;;;9.50;6.87;;;6.20;99.90;;;;;;5068162;28;20241;-49
2022/11/13 05:54:07;;;;;;;7.83;6.07;;;6.20;99.90;;;;;;5067188;28;20203;-49
2022/11/13 05:56:36;;;;;;;7.50;6.43;;;6.20;99.90;;;;;;5067611;28;20207;-49
2022/11/13 05:59:05;;;;;;;9.43;6.87;;;6.20;99.90;;;;;;5067322;28;20219;-50
2022/11/13 06:01:33;;;;;;;7.87;6.20;;;6.20;99.90;;;;;;5066557;28;20246;-50
2022/11/13 06:04:01;;;;;;;9.17;7.13;;;6.30;99.90;;;;;;5052466;28;20211;-48
2022/11/13 06:06:29;;;;;;;6.60;5.77;;;6.20;99.90;;;;;;5072618;22;20251;-50
2022/11/13 06:09:00;;;;;;;5.47;5.03;;;6.20;99.90;;;;;;5040616;28;20214;-49
2022/11/13 06:11:29;;;;;;;5.17;4.77;;;6.30;99.90;;;;;;5064765;28;20297;-49
2022/11/13 06:13:58;;;;;;;5.33;4.80;;;6.20;99.90;;;;;;5051355;28;20202;-49
2022/11/13 06:16:28;;;;;;;5.90;4.83;;;6.20;99.90;;;;;;5057180;28;20214;-49
2022/11/13 06:18:56;;;;;;;5.70;5.27;;;6.20;99.90;;;;;;5060417;28;20195;-50
2022/11/13 06:21:26;;;;;;;5.83;4.83;;;6.20;99.90;;;;;;5058926;28;20649;-50
2022/11/13 06:23:53;;;;;;;5.60;5.20;;;6.20;99.90;;;;;;5052236;28;20199;-49
2022/11/13 06:26:24;;;;;;;5.63;5.13;;;6.10;99.90;;;;;;5055938;28;20237;-50
2022/11/13 06:28:51;;;;;;;5.97;5.13;;;6.10;99.90;;;;;;5057777;28;20219;-52
2022/11/13 06:31:20;;;;;;;5.43;5.03;;;6.10;99.90;;;;;;5049273;28;20242;-50
2022/11/13 06:33:48;;;;;;;5.83;5.17;;;6.10;99.90;;;;;;5059482;28;20656;-52
2022/11/13 06:36:17;;;;;;;5.77;5.27;;;6.10;99.90;;;;;;5059145;28;20227;-51
2022/11/13 06:38:44;;;;;;;5.20;4.70;;;6.10;99.90;;;;;;5047179;28;20206;-52
2022/11/13 06:41:13;;;;;;;6.40;5.90;;;6.10;99.90;;;;;;5064021;28;20217;-53
2022/11/13 06:43:42;;;;;;;6.23;5.63;;;6.10;99.90;;;;;;5059623;28;20217;-51
2022/11/13 06:46:12;;;;;;;6.50;5.57;;;6.10;99.90;;;;;;5058119;28;20223;-51
2022/11/13 06:48:39;;;;;;;6.47;5.80;;;6.10;99.90;;;;;;5051405;28;20211;-53
2022/11/13 06:51:11;;;;;;;7.47;6.03;;;6.10;99.90;;;;;;5051913;28;20317;-50
2022/11/13 06:53:38;;;;;;;6.43;5.90;;;6.10;99.90;;;;;;5052083;28;20273;-51
2022/11/13 06:56:06;;;;;;;5.77;5.27;;;6.20;99.90;;;;;;5052149;28;20251;-51
2022/11/13 06:58:33;;;;;;;4.80;4.40;;;6.20;99.90;;;;;;5052368;28;20571;-51
2022/11/13 07:01:06;;;;;;;8.27;5.57;;;6.20;99.90;;;;;;5064242;28;20209;-51
2022/11/13 07:03:34;;;;;;;7.17;5.87;;;6.20;99.90;;;;;;5063605;28;20200;-52
2022/11/13 07:06:02;;;;;;;6.63;6.00;;;6.10;99.90;;;;;;5051443;28;20311;-51
2022/11/13 07:08:30;;;;;;;6.20;4.97;;;6.20;99.90;;;;;;5049122;28;20202;-50
2022/11/13 07:10:58;;;;;;;5.37;4.87;;;6.20;99.90;;;;;;5059227;28;20219;-52
2022/11/13 07:13:26;;;;;;;6.60;4.60;;;6.20;99.90;;;;;;5066623;28;20226;-52
2022/11/13 07:15:53;;;;;;;5.77;5.27;;;6.20;99.90;;;;;;5071837;28;20244;-50
2022/11/13 07:18:22;;;;;;;5.77;5.17;;;6.20;99.90;;;;;;5055985;28;20215;-52
2022/11/13 07:20:49;;;;;;;5.03;4.53;;;6.20;99.90;;;;;;5051901;28;20283;-50
2022/11/13 07:23:16;;;;;;;5.23;4.63;;;6.20;99.90;;;;;;5059371;28;20221;-51
2022/11/13 07:25:43;;;;;;;4.93;4.50;;;6.20;99.90;;;;;;5053062;28;20219;-51
2022/11/13 07:28:10;;;;;;;5.63;5.07;;;6.20;99.90;;;;;;5048974;28;20211;-52
2022/11/13 07:30:37;;;;;;;5.33;4.80;;;6.20;99.90;;;;;;5051641;28;20202;-51
2022/11/13 07:33:05;;;;;;;5.70;5.10;;;6.10;99.90;;;;;;5063251;28;20218;-52
2022/11/13 07:35:34;;;;;;;5.03;4.53;;;6.20;99.90;;;;;;5055292;28;20211;-53
2022/11/13 07:38:01;;;;;;;5.73;5.13;;;6.20;99.90;;;;;;5062930;28;20197;-52
2022/11/13 07:40:28;;;;;;;4.87;4.33;;;6.20;99.90;;;;;;5056460;28;20696;-51
2022/11/13 07:42:58;;;;;;;5.80;5.20;;;6.20;99.90;;;;;;5053725;28;20198;-52
2022/11/13 07:45:26;;;;;;;6.43;5.30;;;6.10;99.90;;;;;;5055153;28;20231;-51
2022/11/13 07:47:58;;;;;;;6.27;4.73;;;6.20;99.90;;;;;;5060105;28;20290;-51
2022/11/13 07:50:25;;;;;;;5.93;5.33;;;6.30;99.90;;;;;;5057136;28;20217;-52
2022/11/13 07:52:57;;;;;;;4.53;4.17;;;6.20;99.90;;;;;;5042968;28;20220;-51
2022/11/13 07:55:24;;;;;;;5.00;4.67;;;6.30;99.90;;;;;;5049076;28;20198;-51
2022/11/13 07:57:51;;;;;;;5.70;5.10;;;6.30;99.90;;;;;;5053652;28;20712;-52
2022/11/13 08:00:18;;;;;;;5.30;4.80;;;6.30;99.90;;;;;;5042796;28;20689;-52
2022/11/13 08:02:46;;;;;;;4.87;4.03;;;6.30;99.90;;;;;;5050206;28;20226;-51
2022/11/13 08:05:14;;;;;;;11.63;7.20;;;6.20;99.90;;;;;;5050081;28;20204;-51
2022/11/13 08:07:41;;;;;;;8.30;6.63;;;6.20;99.90;;;;;;5050496;28;20228;-51
2022/11/13 08:10:10;;;;;;;6.80;5.80;;;6.20;99.90;;;;;;5050847;28;20314;-50
2022/11/13 08:12:38;;;;;;;6.90;6.03;;;6.10;99.90;;;;;;5050225;28;20285;-49
2022/11/13 08:15:06;;;;;;;6.30;5.67;;;6.10;99.90;;;;;;5058265;28;20207;-50
2022/11/13 08:17:33;;;;;;;7.00;6.40;;;6.10;99.90;;;;;;5070777;28;20226;-50
2022/11/13 08:20:00;;;;;;;6.73;5.90;;;6.10;99.90;;;;;;5060289;28;20743;-49
2022/11/13 08:22:27;;;;;;;10.60;7.83;;;6.20;99.90;;;;;;5050460;28;20199;-49
2022/11/13 08:24:54;;;;;;;13.17;8.90;;;6.30;99.90;;;;;;5049986;28;20273;-49
2022/11/13 08:27:26;;;;;;;15.13;9.60;;;6.30;99.90;;;;;;5050635;28;20684;-49
2022/11/13 08:29:53;;;;;;;9.13;7.23;;;6.30;99.90;;;;;;5060957;28;20201;-51
2022/11/13 08:32:21;;;;;;;10.43;8.43;;;6.30;99.90;;;;;;5060763;28;20221;-49
2022/11/13 08:34:48;;;;;;;9.23;7.50;;;6.30;99.90;;;;;;5042935;28;20247;-49
2022/11/13 08:37:15;;;;;;;8.73;7.50;;;6.30;99.90;;;;;;5051614;28;20713;-49
2022/11/13 08:39:42;;;;;;;9.43;7.83;;;6.30;99.90;;;;;;5049149;28;20291;-49
2022/11/13 08:42:09;;;;;;;9.90;7.30;;;6.30;99.90;;;;;;5060394;28;20207;-49
2022/11/13 08:44:38;;;;;;;11.13;7.60;;;6.40;99.90;;;;;;5048592;28;20208;-49
2022/11/13 08:47:05;;;;;;;10.67;6.30;;;6.40;99.90;;;;;;5050408;28;20227;-50
2022/11/13 08:49:32;;;;;;;7.63;6.77;;;6.40;99.90;;;;;;5050808;28;20253;-50
2022/11/13 08:51:59;;;;;;;8.63;5.57;;;6.40;99.90;;;;;;5050487;28;20257;-50
2022/11/13 08:54:26;;;;;;;5.97;5.30;;;6.50;99.90;;;;;;5057456;28;20226;-50
2022/11/13 08:56:53;;;;;;;6.93;5.90;;;6.50;99.90;;;;;;5060166;28;20228;-49
2022/11/13 08:59:22;;;;;;;10.03;6.37;;;6.50;99.90;;;;;;5052178;28;20202;-49
2022/11/13 09:01:57;;;;;;;6.90;5.87;;;6.50;99.90;;;;;;5047780;28;20208;-49
2022/11/13 09:04:24;;;;;;;10.53;6.03;;;6.50;99.90;;;;;;5050965;28;20198;-49
2022/11/13 09:06:52;;;;;;;7.80;5.93;;;6.50;99.90;;;;;;5054400;28;20316;-50
2022/11/13 09:09:19;;;;;;;9.00;6.27;;;6.60;99.90;;;;;;5049653;28;20242;-51
2022/11/13 09:11:46;;;;;;;9.43;7.23;;;6.50;99.90;;;;;;5056780;28;20205;-52
2022/11/13 09:14:13;;;;;;;9.77;8.07;;;6.60;99.90;;;;;;5061125;28;20570;-50
2022/11/13 09:16:41;;;;;;;10.80;7.57;;;6.60;99.90;;;;;;5065354;28;20265;-51
2022/11/13 09:19:09;;;;;;;9.70;6.67;;;6.60;99.90;;;;;;5051443;28;20445;-51
2022/11/13 09:21:36;;;;;;;6.00;5.40;;;6.70;99.90;;;;;;5061998;28;20759;-50
2022/11/13 09:24:05;;;;;;;4.73;4.27;;;6.70;99.90;;;;;;5052540;28;20264;-51
2022/11/13 09:26:32;;;;;;;5.35;4.95;;;6.70;99.90;;;;;;5036423;28;20935;-50
2022/11/13 09:28:59;;;;;;;6.77;5.40;;;6.60;99.90;;;;;;5061394;28;20681;-50
2022/11/13 09:31:26;;;;;;;4.80;4.40;;;6.60;99.90;;;;;;5053099;28;20595;-49
2022/11/13 09:33:53;;;;;;;5.10;4.70;;;6.50;99.90;;;;;;5060194;28;20234;-52
2022/11/13 09:36:21;;;;;;;5.83;5.33;;;6.50;99.90;;;;;;5050300;28;20293;-51
2022/11/13 09:38:48;;;;;;;5.60;5.10;;;6.40;99.90;;;;;;5045543;28;20267;-49
2022/11/13 09:41:20;;;;;;;5.70;5.20;;;6.50;99.90;;;;;;5049305;28;20322;-51
2022/11/13 09:43:52;;;;;;;7.03;6.33;;;6.60;99.90;;;;;;5052423;28;20202;-51
2022/11/13 09:46:25;;;;;;;6.47;5.87;;;6.50;99.90;;;;;;5048151;28;20223;-51
2022/11/13 09:48:59;;;;;;;7.40;5.63;;;6.70;99.90;;;;;;5053171;28;20614;-49
2022/11/13 09:51:30;;;;;;;6.33;5.43;;;6.60;99.90;;;;;;5052941;28;20212;-49
2022/11/13 09:53:58;;;;;;;7.60;6.83;;;6.70;99.90;;;;;;5054959;28;20272;-49
2022/11/13 09:56:33;;;;;;;7.03;6.43;;;6.80;99.90;;;;;;5058121;28;20763;-49
2022/11/13 09:59:08;;;;;;;6.60;5.00;;;6.80;99.90;;;;;;5059087;28;20746;-50
2022/11/13 10:01:47;;;;;;;6.23;5.77;;;6.80;99.90;;;;;;5056933;28;20229;-50
2022/11/13 10:04:17;;;;;;;7.50;6.20;;;6.90;99.90;;;;;;5049119;28;20257;-50
2022/11/13 10:07:00;;;;;;;6.50;5.90;;;6.80;99.90;;;;;;5062257;28;20285;-50
2022/11/13 10:09:37;;;;;;;8.90;5.43;;;7.00;99.90;;;;;;5025746;28;20266;-50
2022/11/13 10:12:08;;;;;;;6.17;5.57;;;6.90;99.90;;;;;;5029153;28;20264;-54
2022/11/13 10:14:38;;;;;;;5.70;4.87;;;6.90;99.90;;;;;;5029541;28;20227;-51
2022/11/13 10:17:15;;;;;;;7.17;5.73;;;6.80;99.90;;;;;;5026362;28;20579;-50
2022/11/13 10:19:50;;;;;;;6.27;5.77;;;6.90;99.90;;;;;;5030739;28;20210;-51
2022/11/13 10:22:24;;;;;;;5.60;5.10;;;6.90;99.90;;;;;;5038184;28;20203;-49
2022/11/13 10:24:54;;;;;;;5.70;5.10;;;6.80;99.90;;;;;;5038578;28;20227;-51
2022/11/13 10:27:24;;;;;;;7.57;6.17;;;6.80;99.90;;;;;;5030498;28;20689;-51
2022/11/13 10:29:52;;;;;;;6.83;5.97;;;6.90;99.90;;;;;;5034262;28;20570;-50
2022/11/13 10:32:21;;;;;;;6.90;5.10;;;6.90;99.90;;;;;;5034115;28;20222;-50
2022/11/13 10:34:52;;;;;;;6.47;5.90;;;7.00;99.90;;;;;;5031306;28;20225;-51
2022/11/13 10:37:48;;;;;;;6.10;5.50;;;6.90;99.90;;;;;;5021549;28;20220;-51
2022/11/13 10:40:25;;;;;;;6.13;5.57;;;6.90;99.90;;;;;;5031704;28;20843;-50
2022/11/13 10:42:52;;;;;;;5.30;4.80;;;7.00;99.90;;;;;;5036770;28;20211;-51
2022/11/13 10:45:21;;;;;;;6.07;5.57;;;7.00;99.90;;;;;;5030700;28;20234;-51
2022/11/13 10:47:50;;;;;;;7.80;7.10;;;7.10;99.90;;;;;;5031104;28;20577;-50
2022/11/13 10:50:22;;;;;;;5.70;5.07;;;7.10;99.90;;;;;;5031104;28;20585;-50
2022/11/13 10:52:53;;;;;;;8.27;6.07;;;7.10;99.90;;;;;;5027925;28;20208;-51
2022/11/13 10:55:25;;;;;;;5.87;5.30;;;7.10;99.90;;;;;;5012117;28;20209;-52
2022/11/13 10:57:57;;;;;;;6.47;5.10;;;7.20;99.90;;;;;;5029198;28;20220;-50
2022/11/13 11:00:29;;;;;;;7.60;6.37;;;7.20;99.90;;;;;;5030073;28;20689;-49
2022/11/13 11:02:56;;;;;;;4.53;4.23;;;7.30;99.90;;;;;;5035642;28;20659;-49
2022/11/13 11:05:26;;;;;;;4.70;4.40;;;7.10;99.90;;;;;;5021732;28;20287;-52
2022/11/13 11:07:56;;;;;;;5.27;4.87;;;7.20;99.90;;;;;;5041068;28;20204;-49
2022/11/13 11:10:30;;;;;;;5.50;5.07;;;7.20;99.90;;;;;;5029893;28;20196;-51
2022/11/13 11:13:01;;;;;;;5.67;5.27;;;7.20;99.90;;;;;;5037566;28;20207;-49
2022/11/13 11:15:36;;;;;;;5.70;5.30;;;7.30;99.90;;;;;;5028571;28;20208;-51
2022/11/13 11:18:06;;;;;;;6.10;5.63;;;7.30;99.90;;;;;;5023483;28;20276;-51
2022/11/13 11:20:43;;;;;;;6.27;5.73;;;7.30;99.90;;;;;;5039068;28;20260;-50
2022/11/13 11:23:21;;;;;;;5.83;5.23;;;7.20;99.90;;;;;;5037491;28;20208;-51
2022/11/13 11:25:53;;;;;;;9.33;7.03;;;7.20;99.90;;;;;;5035823;28;20289;-49
2022/11/13 11:28:31;;;;;;;5.83;5.27;;;7.20;99.90;;;;;;5039889;28;20249;-50
2022/11/13 11:31:09;;;;;;;6.80;6.20;;;7.20;99.90;;;;;;5030298;28;20232;-51
2022/11/13 11:33:42;;;;;;;5.80;5.40;;;7.10;99.90;;;;;;5033040;28;20220;-54
2022/11/13 11:36:21;;;;;;;8.50;5.33;;;7.10;99.90;;;;;;5032265;28;20772;-49
2022/11/13 11:38:54;;;;;;;6.43;5.83;;;7.10;99.90;;;;;;5037387;28;20909;-49
2022/11/13 11:41:26;;;;;;;6.13;5.53;;;7.20;99.90;;;;;;5039427;28;20204;-50
2022/11/13 11:44:01;;;;;;;6.63;6.00;;;7.20;99.90;;;;;;5037947;28;20200;-50
2022/11/13 11:46:29;;;;;;;7.63;6.13;;;7.30;99.90;;;;;;5021869;28;20250;-49
2022/11/13 11:48:59;;;;;;;6.20;5.60;;;7.20;99.90;;;;;;5038461;28;20656;-49
2022/11/13 11:51:31;;;;;;;9.50;8.43;;;7.30;99.90;;;;;;5035329;28;20212;-52
2022/11/13 11:54:08;;;;;;;20.53;12.67;;;7.30;99.90;;;;;;5031639;28;21430;-50
2022/11/13 11:56:39;;;;;;;14.10;9.20;;;7.20;99.90;;;;;;5031227;28;20286;-51
2022/11/13 11:59:18;;;;;;;10.47;7.50;;;7.20;99.90;;;;;;5028821;28;20868;-51
2022/11/13 12:02:10;;;;;;;6.83;6.20;;;7.20;99.90;;;;;;5030338;28;20200;-49
2022/11/13 12:04:57;;;;;;;6.17;5.27;;;7.20;99.90;;;;;;5026071;28;20247;-50
2022/11/13 12:07:37;;;;;;;7.00;6.20;;;7.20;99.90;;;;;;5025452;28;20232;-50
2022/11/13 12:10:17;;;;;;;8.63;7.60;;;7.20;99.90;;;;;;5030361;28;20206;-49
2022/11/13 12:12:57;;;;;;;6.33;5.50;;;7.30;99.90;;;;;;5032951;28;20232;-50
2022/11/13 12:15:36;;;;;;;10.80;7.00;;;7.30;99.90;;;;;;5038727;28;20242;-50
2022/11/13 12:18:11;;;;;;;7.67;6.87;;;7.20;99.90;;;;;;5032281;28;20194;-48
2022/11/13 12:20:43;;;;;;;5.23;4.83;;;7.30;99.90;;;;;;5030605;28;20561;-49
2022/11/13 12:23:31;;;;;;;5.53;5.03;;;7.20;99.90;;;;;;5029006;28;20211;-48
2022/11/13 12:26:06;;;;;;;6.50;5.80;;;7.20;99.90;;;;;;5029950;28;20222;-48
2022/11/13 12:28:43;;;;;;;5.07;4.67;;;7.20;99.90;;;;;;5030605;28;20194;-49
2022/11/13 12:31:19;;;;;;;5.77;4.80;;;7.30;99.90;;;;;;5047272;28;20207;-48
2022/11/13 12:33:52;;;;;;;5.73;5.20;;;7.40;99.90;;;;;;5034442;28;20286;-51
2022/11/13 12:36:22;;;;;;;5.17;4.77;;;7.40;99.90;;;;;;5024459;28;20235;-50
2022/11/13 12:38:57;;;;;;;16.77;11.07;;;7.40;99.90;;;;;;5035132;28;20207;-48
2022/11/13 12:41:34;;;;;;;27.50;17.93;;;7.40;99.90;;;;;;5028926;28;20208;-49
2022/11/13 12:44:18;;;;;;;5.87;5.33;;;7.30;99.90;;;;;;5040913;28;20194;-47
2022/11/13 12:46:47;;;;;;;6.07;5.13;;;7.30;99.90;;;;;;5045714;28;20233;-49
2022/11/13 12:49:27;;;;;;;5.73;5.23;;;7.30;99.90;;;;;;5034071;28;20200;-49
2022/11/13 12:51:56;;;;;;;8.10;6.97;;;7.30;99.90;;;;;;5033945;28;20200;-49
2022/11/13 12:54:28;;;;;;;9.70;6.73;;;7.30;99.90;;;;;;5044193;28;20216;-48
2022/11/13 12:57:16;;;;;;;11.27;8.10;;;7.30;99.90;;;;;;5042500;28;20219;-49
2022/11/13 12:59:45;;;;;;;11.33;8.17;;;7.30;99.90;;;;;;5039020;28;20200;-48